createdAt,value
2018-08-09T00:02:04.778Z,93.099998
2018-08-09T00:07:07.094Z,94
2018-08-09T00:12:09.355Z,94.699997
2018-08-09T00:17:11.706Z,93.699997
2018-08-09T00:22:14.120Z,92.599998
2018-08-09T00:27:16.305Z,92.199997
2018-08-09T00:32:18.563Z,92.400002
2018-08-09T00:37:20.850Z,93.300003
2018-08-09T00:42:23.229Z,95.099998
2018-08-09T00:47:25.434Z,97.099998
2018-08-09T00:52:27.870Z,95.800003
2018-08-09T00:57:30.012Z,96.099998
2018-08-09T01:02:32.443Z,96.5
2018-08-09T01:07:34.633Z,99.900002
2018-08-09T01:12:36.865Z,99.900002
2018-08-09T01:17:39.323Z,97.699997
2018-08-09T01:22:41.552Z,97.800003
2018-08-09T01:27:43.826Z,96.699997
2018-08-09T01:32:46.153Z,96.800003
2018-08-09T01:37:48.390Z,96.400002
2018-08-09T01:42:50.706Z,98.300003
2018-08-09T01:47:53.046Z,99
2018-08-09T01:52:55.380Z,98
2018-08-09T01:57:57.515Z,96.900002
2018-08-09T02:02:59.905Z,95.599998
2018-08-09T02:08:02.113Z,95.699997
2018-08-09T02:13:04.358Z,95
2018-08-09T02:18:06.714Z,96.599998
2018-08-09T02:23:09.070Z,96.5
2018-08-09T02:28:11.293Z,96.5
2018-08-09T02:33:13.581Z,94.599998
2018-08-09T02:38:15.890Z,94.699997
2018-08-09T02:43:18.481Z,94.400002
2018-08-09T02:48:20.597Z,94.099998
2018-08-09T02:53:22.820Z,93
2018-08-09T02:58:25.084Z,92.599998
2018-08-09T03:03:27.360Z,91.199997
2018-08-09T03:08:29.712Z,91.199997
2018-08-09T03:13:31.944Z,92.099998
2018-08-09T03:18:34.309Z,91.599998
2018-08-09T03:23:36.551Z,89.699997
2018-08-09T03:28:38.859Z,90.599998
2018-08-09T03:33:41.058Z,91.199997
2018-08-09T03:38:43.437Z,93
2018-08-09T03:43:45.644Z,94.800003
2018-08-09T03:48:47.973Z,96.099998
2018-08-09T03:53:50.232Z,93.199997
2018-08-09T03:58:52.606Z,91.800003
2018-08-09T04:03:54.839Z,91.699997
2018-08-09T04:08:58.344Z,90.300003
2018-08-09T04:13:59.479Z,90.099998
2018-08-09T04:19:01.856Z,89.800003
2018-08-09T04:24:03.987Z,91
2018-08-09T04:29:06.307Z,93.5
2018-08-09T04:34:08.612Z,91.300003
2018-08-09T04:44:13.400Z,90.5
2018-08-09T04:49:15.595Z,90.800003
2018-08-09T04:54:17.739Z,88.900002
2018-08-09T04:59:20.217Z,88.599998
2018-08-09T05:04:22.385Z,86.699997
2018-08-09T05:09:24.783Z,86.699997
2018-08-09T05:14:27.026Z,88.5
2018-08-09T05:19:29.307Z,85.099998
2018-08-09T05:24:31.588Z,84.400002
2018-08-09T05:29:33.833Z,83.300003
2018-08-09T05:34:37.271Z,82.300003
2018-08-09T05:39:38.382Z,84
2018-08-09T05:44:40.813Z,82.199997
2018-08-09T05:49:43.034Z,81.599998
2018-08-09T05:54:45.356Z,81.099998
2018-08-09T05:59:47.581Z,80.900002
2018-08-09T06:04:49.849Z,79
2018-08-09T06:09:52.294Z,75.699997
2018-08-09T06:14:54.627Z,76.300003
2018-08-09T06:19:56.792Z,76.400002
2018-08-09T06:24:59.127Z,76.900002
2018-08-09T06:35:03.718Z,72.900002
2018-08-09T06:40:06.097Z,76.099998
2018-08-09T06:45:08.337Z,74.800003
2018-08-09T06:50:10.646Z,75.400002
2018-08-09T06:55:12.950Z,75.599998
2018-08-09T07:00:15.131Z,73.199997
2018-08-09T07:05:17.472Z,72.099998
2018-08-09T07:10:19.736Z,74.400002
2018-08-09T07:15:22.053Z,72.800003
2018-08-09T07:20:24.432Z,72.699997
2018-08-09T07:25:26.722Z,72.5
2018-08-09T07:30:28.888Z,71.800003
2018-08-09T07:35:31.346Z,72.199997
2018-08-09T07:40:33.470Z,72
2018-08-09T07:50:38.177Z,72
2018-08-09T07:55:40.474Z,68.900002
2018-08-09T08:00:42.795Z,69.400002
2018-08-09T08:05:45.060Z,66.599998
2018-08-09T08:10:47.420Z,66.400002
2018-08-09T08:15:49.601Z,66.300003
2018-08-09T08:20:53.666Z,65.599998
2018-08-09T08:25:54.277Z,65.599998
2018-08-09T08:30:56.448Z,64.900002
2018-08-09T08:35:58.833Z,66.400002
2018-08-09T08:41:01.024Z,66.800003
2018-08-09T08:46:03.290Z,68
2018-08-09T08:51:05.760Z,67.099998
2018-08-09T08:56:07.969Z,68
2018-08-09T09:01:10.207Z,63.400002
2018-08-09T09:06:12.447Z,64.400002
2018-08-09T09:11:14.984Z,65
2018-08-09T09:16:17.070Z,63.599998
2018-08-09T09:21:19.376Z,64.5
2018-08-09T09:26:21.715Z,65.300003
2018-08-09T09:31:24.023Z,64.300003
2018-08-09T09:36:26.321Z,65.199997
2018-08-09T09:41:28.673Z,68.099998
2018-08-09T09:46:30.854Z,70.699997
2018-08-09T09:51:33.251Z,75.099998
2018-08-09T09:56:35.511Z,81.599998
2018-08-09T10:01:37.838Z,80.800003
2018-08-09T10:06:40.044Z,71.5
2018-08-09T10:11:42.436Z,70.199997
2018-08-09T10:16:44.659Z,70.199997
2018-08-09T10:21:47.014Z,70.099998
2018-08-09T10:26:49.268Z,72.5
2018-08-09T10:31:51.616Z,73.099998
2018-08-09T10:36:53.849Z,74.199997
2018-08-09T10:41:56.180Z,76.699997
2018-08-09T10:46:58.519Z,82.699997
2018-08-09T10:52:00.833Z,88
2018-08-09T10:57:02.921Z,89.199997
2018-08-09T11:02:05.282Z,89.300003
2018-08-09T11:07:07.672Z,88.400002
2018-08-09T11:12:09.882Z,89.800003
2018-08-09T11:17:12.135Z,94.400002
2018-08-09T11:22:14.496Z,95.199997
2018-08-09T11:27:16.833Z,99.900002
2018-08-09T11:32:19.070Z,99.900002
2018-08-09T11:37:21.301Z,99.900002
2018-08-09T11:42:23.793Z,99.900002
2018-08-09T11:47:25.987Z,99.900002
2018-08-09T11:52:28.247Z,99.900002
2018-08-09T11:57:30.662Z,99.900002
2018-08-09T12:02:32.832Z,99.900002
2018-08-09T12:07:35.150Z,99.900002
2018-08-09T12:12:37.463Z,99.900002
2018-08-09T12:17:39.752Z,99.699997
2018-08-09T12:22:42.115Z,99.900002
2018-08-09T12:27:44.268Z,99.099998
2018-08-09T12:32:46.673Z,99.900002
2018-08-09T12:37:49.005Z,99.900002
2018-08-09T12:42:51.153Z,99.900002
2018-08-09T12:47:53.628Z,99.900002
2018-08-09T12:52:55.833Z,99.599998
2018-08-09T12:57:58.103Z,99.900002
2018-08-09T13:03:00.474Z,98.5
2018-08-09T13:08:02.723Z,95.599998
2018-08-09T13:13:05.117Z,94.800003
2018-08-09T13:18:07.284Z,96
2018-08-09T13:23:09.636Z,93.699997
2018-08-09T13:28:11.908Z,95.699997
2018-08-09T13:33:14.222Z,94.400002
2018-08-09T13:38:16.453Z,94.300003
2018-08-09T13:43:18.828Z,97.099998
2018-08-09T13:48:21.174Z,96.699997
2018-08-09T13:53:23.375Z,92.900002
2018-08-09T13:58:25.717Z,94.900002
2018-08-09T14:03:27.877Z,93.599998
2018-08-09T14:08:30.378Z,93.199997
2018-08-09T14:13:32.551Z,91.300003
2018-08-09T14:18:34.911Z,90.699997
2018-08-09T14:23:37.118Z,88.099998
2018-08-09T14:28:39.324Z,88.699997
2018-08-09T14:33:41.703Z,89.699997
2018-08-09T14:38:44.019Z,91.400002
2018-08-09T14:43:46.370Z,94.300003
2018-08-09T14:48:48.692Z,96.300003
2018-08-09T14:53:50.892Z,98.900002
2018-08-09T14:58:53.326Z,97
2018-08-09T15:03:55.490Z,93.800003
2018-08-09T15:08:57.957Z,90.599998
2018-08-09T15:14:00.102Z,90.800003
2018-08-09T15:19:02.387Z,96.199997
2018-08-09T15:24:04.610Z,97.199997
2018-08-09T15:29:06.870Z,94.099998
2018-08-09T15:34:09.252Z,98.699997
2018-08-09T15:39:12.950Z,95.599998
2018-08-09T15:44:13.864Z,91.300003
2018-08-09T15:49:16.249Z,95.099998
2018-08-09T15:54:18.446Z,86.400002
2018-08-09T15:59:20.714Z,84
2018-08-09T16:04:22.998Z,84.099998
2018-08-09T16:09:25.333Z,85.599998
2018-08-09T16:14:27.513Z,85.099998
2018-08-09T16:19:29.933Z,86.199997
2018-08-09T16:24:32.220Z,86.5
2018-08-09T16:29:34.531Z,87.400002
2018-08-09T16:34:36.864Z,87.199997
2018-08-09T16:39:39.134Z,87.599998
2018-08-09T16:44:41.268Z,88.699997
2018-08-09T16:49:43.593Z,88.599998
2018-08-09T16:54:45.957Z,86
2018-08-09T16:59:48.258Z,86
2018-08-09T17:04:50.592Z,86.900002
2018-08-09T17:09:52.927Z,88.5
2018-08-09T17:14:55.244Z,85.099998
2018-08-09T17:19:57.357Z,85.400002
2018-08-09T17:24:59.777Z,84.900002
2018-08-09T17:30:01.970Z,85.199997
2018-08-09T17:35:04.254Z,85.900002
2018-08-09T17:40:06.632Z,85.800003
2018-08-09T17:45:08.868Z,84.800003
2018-08-09T17:50:11.164Z,85.699997
2018-08-09T17:55:13.579Z,91
2018-08-09T18:00:15.844Z,96.400002
2018-08-09T18:05:18.015Z,99.900002
2018-08-09T18:10:20.362Z,99.900002
2018-08-09T18:15:22.756Z,99.900002
2018-08-09T18:20:24.964Z,99.900002
2018-08-09T18:25:27.212Z,99.900002
2018-08-09T18:30:30.847Z,99.900002
2018-08-09T18:35:31.950Z,99.900002
2018-08-09T18:40:34.080Z,99.900002
2018-08-09T18:45:36.486Z,99.900002
2018-08-09T18:50:38.616Z,99.900002
2018-08-09T18:55:40.971Z,99.900002
2018-08-09T19:00:43.340Z,99.900002
2018-08-09T19:05:45.583Z,99.900002
2018-08-09T19:10:47.981Z,99.900002
2018-08-09T19:15:50.135Z,99.900002
2018-08-09T19:20:52.542Z,99.900002
2018-08-09T19:25:54.946Z,99.900002
2018-08-09T19:30:57.088Z,99.900002
2018-08-09T19:35:59.393Z,99.900002
2018-08-09T19:41:01.733Z,99.900002
2018-08-09T19:46:03.940Z,99.900002
2018-08-09T19:51:07.443Z,99.900002
2018-08-09T19:56:08.657Z,99.900002
2018-08-09T20:01:10.886Z,99.900002
2018-08-09T20:06:13.119Z,99.900002
2018-08-09T20:11:15.356Z,99.900002
2018-08-09T20:16:17.813Z,99.900002
2018-08-09T20:21:20.103Z,99.900002
2018-08-09T20:26:22.314Z,99.900002
2018-08-09T20:31:24.622Z,99.900002
2018-08-09T20:36:26.792Z,99.900002
2018-08-09T20:41:29.313Z,99.900002
2018-08-09T20:46:31.464Z,99.900002
2018-08-09T20:51:33.687Z,99.900002
2018-08-09T20:56:36.105Z,99.900002
2018-08-09T21:01:38.382Z,99.900002
2018-08-09T21:06:40.624Z,99.900002
2018-08-09T21:11:43.031Z,99.900002
2018-08-09T21:16:45.350Z,99.900002
2018-08-09T21:21:47.507Z,99.900002
2018-08-09T21:26:49.898Z,99.900002
2018-08-09T21:31:52.072Z,99.900002
2018-08-09T21:36:54.420Z,99.900002
2018-08-09T21:41:56.722Z,99.900002
2018-08-09T21:47:00.782Z,99.900002
2018-08-09T21:52:01.363Z,99.900002
2018-08-09T21:57:03.565Z,99.900002
2018-08-09T22:02:05.936Z,99.900002
2018-08-09T22:07:08.149Z,99.900002
2018-08-09T22:12:10.760Z,99.900002
2018-08-09T22:17:12.742Z,99.900002
2018-08-09T22:22:15.122Z,99.900002
2018-08-09T22:27:17.545Z,99.900002
2018-08-09T22:32:19.748Z,99.900002
2018-08-09T22:37:21.950Z,99.900002
2018-08-09T22:42:24.326Z,99.900002
2018-08-09T22:47:26.600Z,99.900002
2018-08-09T22:52:28.858Z,99.900002
2018-08-09T22:57:31.180Z,99.900002
2018-08-09T23:02:33.540Z,99.900002
2018-08-09T23:07:35.875Z,99.900002
2018-08-09T23:12:38.027Z,99.900002
2018-08-09T23:17:40.324Z,99.900002
2018-08-09T23:22:42.564Z,99.900002
2018-08-09T23:27:44.965Z,99.900002
2018-08-09T23:32:47.156Z,99.900002
2018-08-09T23:37:49.540Z,99.900002
2018-08-09T23:42:51.840Z,99.900002
2018-08-09T23:47:54.114Z,99.900002
2018-08-09T23:52:56.372Z,99.900002
2018-08-09T23:57:58.709Z,99.900002
